Huvudsida
METAR-TAF:

METAR-TAF

Flygplatser :

Dibrugarh Airport

Dibrugarh, Indien

latitud: 27-29N, longitud: 095-01E, höjd: 110 m

Aktuellt väderrapport

Denna rapport gjordes för 46 minuter sedan, klockan 08:30 UTC
Vind 4 kt från väst/nordväst
Temperatur 30°C
Fuktighet 79%
Tryck 1004 hPa
Sikt: 5000 m
Spridda moln på en höjd av 1800 ft
Brutna moln på en höjd av 10000 ft
fuktdis,

METAR: VEMN 200830Z 30004KT 5000 BR SCT018 BKN100 30/26 Q1004 NOSIG

Tid: 14:46 (09:16 UTC)

Väderprognos

Denna rapport gjordes för 1 timme och 16 minuter sedan, klockan 08:00 UTC
Prognos gäller från 20 kl. 09 UTC till 20 kl. 18 UTC
Vind 5 kt från sydväst
Sikt: 5000 m
Spridda moln på en höjd av 1800 ft
Brutna moln på en höjd av 10000 ft
torrdis
Blir
från 20 kl. 13 UTC till 20 kl. 15 UTC
Sikt: 4000 m
fuktdis,

TAF: VEMN 200800Z 2009/2018 23005KT 5000 HZ SCT018 BKN100 BECMG 2013/2015 4000 BR

Aktuella väderrapporter och prognoser från 4000 flygplatser (METAR- och TAF-rapporter).

De tillgängliga stationerna syns som gula och röda prickar på kartan.

För musen över prickarna för att se namnen på stationerna.

Klicka sedan för att få väderrapporter och prognoser.

För att ändra kartan: Klicka på de gröna knapparna med ett svart kors på för att zooma in; den gröna knappen med ett streck på för att zooma ut; eller på de gröna pilarna för angränsande kartor.


METAR-TAF: